createdAt,value
2023-04-17T00:01:07.495Z,2.70
2023-04-17T00:04:11.397Z,2.70
2023-04-17T00:07:14.256Z,3.30
2023-04-17T00:10:16.842Z,3.03
2023-04-17T00:13:19.266Z,2.22
2023-04-17T00:16:21.704Z,2.70
2023-04-17T00:19:24.022Z,2.85
2023-04-17T00:22:26.481Z,2.85
2023-04-17T00:25:28.746Z,2.92
2023-04-17T00:28:33.028Z,3.08
2023-04-17T00:31:35.320Z,2.80
2023-04-17T00:34:38.299Z,2.95
2023-04-17T00:37:40.646Z,2.83
2023-04-17T00:40:45.581Z,2.80
2023-04-17T00:43:47.913Z,2.50
2023-04-17T00:46:50.365Z,2.80
2023-04-17T00:49:52.682Z,2.67
2023-04-17T00:52:55.888Z,2.50
2023-04-17T00:56:00.562Z,2.75
2023-04-17T00:59:06.748Z,2.33
2023-04-17T01:02:09.283Z,2.65
2023-04-17T01:05:11.986Z,2.50
2023-04-17T01:08:14.899Z,2.80
2023-04-17T01:11:17.838Z,2.50
2023-04-17T01:14:20.130Z,2.72
2023-04-17T01:17:23.249Z,2.88
2023-04-17T01:20:25.829Z,2.80
2023-04-17T01:23:29.644Z,2.13
2023-04-17T01:26:33.172Z,2.50
2023-04-17T01:29:35.932Z,2.50
2023-04-17T01:32:38.489Z,2.35
2023-04-17T01:35:41.140Z,2.20
2023-04-17T01:38:43.523Z,2.38
2023-04-17T01:41:45.818Z,2.80
2023-04-17T01:44:48.225Z,2.15
2023-04-17T01:47:50.947Z,2.53
2023-04-17T01:50:53.312Z,2.58
2023-04-17T01:53:55.648Z,2.40
2023-04-17T01:56:58.146Z,2.00
2023-04-17T02:00:01.000Z,1.98
2023-04-17T02:03:03.408Z,2.33
2023-04-17T02:06:05.884Z,2.00
2023-04-17T02:09:08.107Z,2.17
2023-04-17T02:12:14.330Z,2.22
2023-04-17T02:15:18.619Z,2.10
2023-04-17T02:18:21.318Z,2.40
2023-04-17T02:21:23.634Z,2.03
2023-04-17T02:24:26.353Z,2.38
2023-04-17T02:27:28.668Z,2.28
2023-04-17T02:30:31.313Z,2.08
2023-04-17T02:33:35.251Z,1.73
2023-04-17T02:36:37.630Z,2.10
2023-04-17T02:39:40.077Z,2.00
2023-04-17T02:42:42.729Z,1.92
2023-04-17T02:45:44.933Z,1.90
2023-04-17T02:48:48.256Z,2.25
2023-04-17T02:51:50.576Z,2.10
2023-04-17T02:54:52.894Z,2.00
2023-04-17T02:57:55.185Z,1.90
2023-04-17T03:01:03.979Z,2.10
2023-04-17T03:04:10.178Z,2.03
2023-04-17T03:07:13.895Z,2.20
2023-04-17T03:10:16.282Z,2.08
2023-04-17T03:13:19.852Z,2.35
2023-04-17T03:16:22.138Z,2.33
2023-04-17T03:19:24.446Z,1.92
2023-04-17T03:22:26.842Z,2.08
2023-04-17T03:25:29.171Z,2.08
2023-04-17T03:28:31.666Z,2.05
2023-04-17T03:31:34.043Z,2.15
2023-04-17T03:34:36.486Z,2.30
2023-04-17T03:37:38.841Z,2.03
2023-04-17T03:40:42.141Z,2.25
2023-04-17T03:43:45.849Z,2.30
2023-04-17T03:46:48.135Z,2.35
2023-04-17T03:49:50.657Z,2.03
2023-04-17T03:52:53.700Z,2.20
2023-04-17T03:55:57.302Z,2.58
2023-04-17T03:59:06.891Z,2.40
2023-04-17T04:02:13.509Z,2.25
2023-04-17T04:05:15.993Z,2.22
2023-04-17T04:08:19.129Z,2.47
2023-04-17T04:11:25.376Z,2.20
2023-04-17T04:14:27.747Z,2.58
2023-04-17T04:17:30.053Z,2.80
2023-04-17T04:20:33.358Z,2.60
2023-04-17T04:23:46.780Z,2.63
2023-04-17T04:26:53.366Z,3.90
2023-04-17T04:29:59.052Z,2.35
2023-04-17T04:33:06.251Z,2.88
2023-04-17T04:36:08.800Z,2.97
2023-04-17T04:39:11.906Z,3.22
2023-04-17T04:42:14.357Z,3.25
2023-04-17T04:45:29.197Z,2.95
2023-04-17T04:48:32.722Z,3.20
2023-04-17T04:51:36.115Z,3.25
2023-04-17T04:54:41.536Z,3.50
2023-04-17T04:57:44.363Z,3.00
2023-04-17T05:00:48.082Z,3.20
2023-04-17T05:03:57.730Z,3.55
2023-04-17T05:07:05.637Z,3.35
2023-04-17T05:10:11.952Z,3.30
2023-04-17T05:16:46.764Z,3.33
2023-04-17T05:19:49.704Z,3.00
2023-04-17T05:22:53.090Z,3.88
2023-04-17T05:25:57.486Z,3.95
2023-04-17T05:28:59.880Z,3.15
2023-04-17T05:32:05.982Z,2.92
2023-04-17T05:35:28.796Z,3.17
2023-04-17T05:38:31.893Z,3.88
2023-04-17T05:41:34.231Z,2.95
2023-04-17T05:44:36.591Z,3.05
2023-04-17T05:47:38.929Z,3.28
2023-04-17T05:50:41.438Z,2.78
2023-04-17T05:53:45.070Z,2.83
2023-04-17T05:56:47.674Z,2.85
2023-04-17T05:59:50.860Z,3.00
2023-04-17T06:02:53.542Z,3.00
2023-04-17T06:06:05.802Z,3.10
2023-04-17T06:09:10.021Z,2.83
2023-04-17T06:12:16.430Z,2.88
2023-04-17T06:15:19.975Z,2.80
2023-04-17T06:18:22.383Z,3.58
2023-04-17T06:21:24.993Z,3.03
2023-04-17T06:24:27.334Z,2.88
2023-04-17T06:27:30.626Z,2.95
2023-04-17T06:30:32.817Z,3.05
2023-04-17T06:33:35.005Z,2.97
2023-04-17T06:36:38.923Z,2.90
2023-04-17T06:39:41.569Z,2.92
2023-04-17T06:42:44.106Z,2.95
2023-04-17T06:45:53.138Z,2.58
2023-04-17T06:48:58.185Z,2.22
2023-04-17T06:52:00.991Z,3.00
2023-04-17T06:55:03.279Z,2.67
2023-04-17T06:58:08.050Z,2.58
2023-04-17T07:01:11.795Z,2.83
2023-04-17T07:04:14.237Z,2.78
2023-04-17T07:07:16.551Z,2.05
2023-04-17T07:10:19.878Z,2.63
2023-04-17T07:13:22.344Z,2.80
2023-04-17T07:16:24.852Z,2.75
2023-04-17T07:19:27.423Z,2.55
2023-04-17T07:22:29.618Z,2.50
2023-04-17T07:25:31.870Z,2.83
2023-04-17T07:28:42.428Z,2.50
2023-04-17T07:31:44.787Z,2.17
2023-04-17T07:34:47.826Z,2.72
2023-04-17T07:37:50.305Z,2.55
2023-04-17T07:40:52.604Z,2.22
2023-04-17T07:43:55.235Z,2.50
2023-04-17T07:46:58.798Z,2.65
2023-04-17T07:50:01.127Z,2.67
2023-04-17T07:53:03.547Z,2.47
2023-04-17T07:56:06.806Z,2.75
2023-04-17T07:59:09.905Z,2.78
2023-04-17T08:02:12.611Z,2.60
2023-04-17T08:05:15.026Z,2.47
2023-04-17T08:08:17.344Z,2.20
2023-04-17T08:11:19.872Z,2.30
2023-04-17T08:14:22.268Z,2.35
2023-04-17T08:17:26.321Z,2.75
2023-04-17T08:20:28.647Z,2.45
2023-04-17T08:23:31.146Z,2.47
2023-04-17T08:26:33.621Z,2.13
2023-04-17T08:29:35.964Z,2.65
2023-04-17T08:32:42.886Z,2.03
2023-04-17T08:35:45.884Z,2.50
2023-04-17T08:38:48.889Z,2.55
2023-04-17T08:42:04.099Z,2.30
2023-04-17T08:45:13.944Z,2.42
2023-04-17T08:48:16.409Z,2.00
2023-04-17T08:51:18.818Z,2.00
2023-04-17T08:54:22.287Z,2.08
2023-04-17T08:57:24.732Z,1.88
2023-04-17T09:00:28.760Z,1.90
2023-04-17T09:03:40.710Z,2.10
2023-04-17T09:06:53.204Z,2.38
2023-04-17T09:09:56.851Z,2.35
2023-04-17T09:13:01.272Z,2.13
2023-04-17T09:16:13.164Z,2.40
2023-04-17T09:19:15.626Z,2.17
2023-04-17T09:22:22.148Z,2.35
2023-04-17T09:25:24.669Z,2.13
2023-04-17T09:28:26.952Z,2.00
2023-04-17T09:31:34.990Z,2.28
2023-04-17T09:34:41.414Z,2.40
2023-04-17T09:37:55.249Z,1.92
2023-04-17T09:40:57.445Z,2.00
2023-04-17T09:44:07.327Z,1.80
2023-04-17T09:47:11.516Z,2.20
2023-04-17T09:50:18.348Z,2.17
2023-04-17T09:53:20.820Z,2.83
2023-04-17T09:56:24.650Z,2.10
2023-04-17T09:59:27.777Z,2.60
2023-04-17T10:02:30.186Z,2.08
2023-04-17T10:05:32.693Z,2.03
2023-04-17T10:08:35.362Z,2.10
2023-04-17T10:11:41.009Z,2.30
2023-04-17T10:14:48.909Z,2.08
2023-04-17T10:17:51.345Z,2.28
2023-04-17T10:20:54.282Z,2.15
2023-04-17T10:23:56.897Z,2.10
2023-04-17T10:26:59.145Z,2.30
2023-04-17T10:30:03.148Z,2.40
2023-04-17T10:33:22.188Z,2.65
2023-04-17T10:36:39.777Z,2.22
2023-04-17T10:40:01.897Z,2.53
2023-04-17T10:43:22.589Z,2.55
2023-04-17T10:46:26.499Z,2.67
2023-04-17T10:49:28.862Z,2.55
2023-04-17T10:52:40.478Z,2.30
2023-04-17T10:55:52.585Z,2.70
2023-04-17T10:59:05.534Z,2.78
2023-04-17T11:02:08.198Z,2.50
2023-04-17T11:05:11.208Z,2.55
2023-04-17T11:08:13.852Z,2.80
2023-04-17T11:11:27.024Z,2.70
2023-04-17T11:14:41.101Z,2.25
2023-04-17T11:17:48.178Z,2.00
2023-04-17T11:20:50.618Z,2.17
2023-04-17T11:23:52.874Z,2.35
2023-04-17T11:26:56.768Z,2.60
2023-04-17T11:29:59.148Z,2.50
2023-04-17T11:33:03.509Z,2.80
2023-04-17T11:36:08.980Z,2.55
2023-04-17T11:39:15.135Z,2.38
2023-04-17T11:42:27.191Z,2.40
2023-04-17T11:45:32.767Z,2.25
2023-04-17T11:48:35.363Z,2.30
2023-04-17T11:51:38.022Z,2.25
2023-04-17T11:54:40.330Z,2.30
2023-04-17T11:57:45.951Z,2.22
2023-04-17T12:01:05.360Z,2.13
2023-04-17T12:04:21.017Z,2.33
2023-04-17T12:07:25.036Z,1.98
2023-04-17T12:10:36.843Z,1.88
2023-04-17T12:13:39.306Z,2.20
2023-04-17T12:16:41.918Z,2.10
2023-04-17T12:19:45.445Z,1.90
2023-04-17T12:22:47.660Z,2.00
2023-04-17T12:25:49.972Z,2.05
2023-04-17T12:28:52.474Z,1.90
2023-04-17T12:31:54.793Z,1.88
2023-04-17T12:34:57.168Z,1.75
2023-04-17T12:37:59.692Z,1.80
2023-04-17T12:41:02.153Z,1.60
2023-04-17T12:44:07.440Z,1.90
2023-04-17T12:47:09.727Z,1.70
2023-04-17T12:50:13.088Z,1.80
2023-04-17T12:53:15.872Z,2.00
2023-04-17T12:56:18.175Z,2.42
2023-04-17T12:59:20.763Z,2.00
2023-04-17T13:02:23.925Z,1.70
2023-04-17T13:05:27.694Z,1.80
2023-04-17T13:08:30.472Z,1.75
2023-04-17T13:11:32.762Z,1.70
2023-04-17T13:14:35.151Z,1.58
2023-04-17T13:17:37.690Z,1.42
2023-04-17T13:20:40.231Z,1.75
2023-04-17T13:23:42.674Z,2.05
2023-04-17T13:26:45.262Z,1.80
2023-04-17T13:29:47.596Z,1.80
2023-04-17T13:32:49.859Z,1.70
2023-04-17T13:35:53.484Z,1.92
2023-04-17T13:38:55.743Z,1.90
2023-04-17T13:41:58.300Z,1.75
2023-04-17T13:45:00.573Z,1.40
2023-04-17T13:48:03.283Z,1.55
2023-04-17T13:51:05.690Z,1.75
2023-04-17T13:54:09.436Z,1.70
2023-04-17T13:57:14.750Z,1.95
2023-04-17T14:00:19.098Z,1.90
2023-04-17T14:03:21.444Z,1.88
2023-04-17T14:06:23.851Z,1.75
2023-04-17T14:09:26.273Z,1.80
2023-04-17T14:12:28.688Z,1.83
2023-04-17T14:15:32.227Z,1.70
2023-04-17T14:18:34.444Z,2.17
2023-04-17T14:21:36.800Z,2.08
2023-04-17T14:24:39.074Z,2.35
2023-04-17T14:27:41.386Z,2.00
2023-04-17T14:30:43.673Z,2.20
2023-04-17T14:33:45.952Z,1.60
2023-04-17T14:36:49.011Z,1.80
2023-04-17T14:39:51.499Z,2.13
2023-04-17T14:42:54.751Z,1.60
2023-04-17T14:45:57.335Z,1.58
2023-04-17T14:48:59.680Z,2.00
2023-04-17T14:52:02.103Z,2.00
2023-04-17T14:55:04.673Z,1.95
2023-04-17T14:58:07.100Z,1.73
2023-04-17T15:01:10.814Z,1.48
2023-04-17T15:04:15.592Z,1.75
2023-04-17T15:07:20.234Z,1.90
2023-04-17T15:10:23.355Z,1.85
2023-04-17T15:13:25.617Z,1.67
2023-04-17T15:16:28.077Z,1.80
2023-04-17T15:19:30.396Z,1.63
2023-04-17T15:22:33.376Z,2.20
2023-04-17T15:25:35.744Z,1.98
2023-04-17T15:28:38.009Z,1.60
2023-04-17T15:31:40.533Z,1.63
2023-04-17T15:34:42.946Z,2.00
2023-04-17T15:37:45.317Z,1.90
2023-04-17T15:40:47.952Z,1.90
2023-04-17T15:43:50.542Z,1.98
2023-04-17T15:46:52.876Z,2.30
2023-04-17T15:49:55.160Z,1.95
2023-04-17T15:52:57.533Z,1.58
2023-04-17T15:56:00.024Z,2.00
2023-04-17T15:59:02.327Z,2.15
2023-04-17T16:02:04.906Z,2.03
2023-04-17T16:05:07.615Z,2.08
2023-04-17T16:08:09.922Z,1.90
2023-04-17T16:11:12.712Z,1.92
2023-04-17T16:14:15.179Z,1.52
2023-04-17T16:17:18.042Z,2.00
2023-04-17T16:20:20.392Z,2.45
2023-04-17T16:23:22.813Z,1.77
2023-04-17T16:26:30.726Z,1.60
2023-04-17T16:29:33.204Z,1.77
2023-04-17T16:32:35.767Z,1.80
2023-04-17T16:35:37.997Z,1.80
2023-04-17T16:38:40.404Z,1.83
2023-04-17T16:41:42.748Z,1.80
2023-04-17T16:44:48.431Z,1.75
2023-04-17T16:47:50.818Z,2.10
2023-04-17T16:50:53.156Z,1.75
2023-04-17T16:53:55.417Z,2.10
2023-04-17T16:56:57.634Z,1.80
2023-04-17T16:59:59.905Z,2.10
2023-04-17T17:03:02.432Z,2.38
2023-04-17T17:06:07.385Z,1.90
2023-04-17T17:09:09.796Z,2.13
2023-04-17T17:12:12.033Z,2.10
2023-04-17T17:15:14.390Z,2.05
2023-04-17T17:18:16.653Z,1.98
2023-04-17T17:21:18.864Z,1.98
2023-04-17T17:24:21.103Z,2.30
2023-04-17T17:27:23.445Z,1.98
2023-04-17T17:30:26.078Z,2.08
2023-04-17T17:33:29.136Z,1.80
2023-04-17T17:36:31.588Z,2.20
2023-04-17T17:39:33.819Z,2.92
2023-04-17T17:42:36.153Z,2.97
2023-04-17T17:45:39.183Z,2.35
2023-04-17T17:48:41.501Z,1.98
2023-04-17T17:51:44.746Z,2.67
2023-04-17T17:54:46.942Z,2.00
2023-04-17T17:57:49.850Z,2.20
2023-04-17T18:00:52.445Z,2.17
2023-04-17T18:03:54.982Z,2.35
2023-04-17T18:06:57.469Z,2.33
2023-04-17T18:10:00.574Z,2.40
2023-04-17T18:13:02.853Z,2.50
2023-04-17T18:16:05.361Z,2.00
2023-04-17T18:19:07.733Z,2.28
2023-04-17T18:22:10.443Z,2.10
2023-04-17T18:25:12.929Z,2.10
2023-04-17T18:28:15.430Z,2.05
2023-04-17T18:31:18.044Z,2.40
2023-04-17T18:34:23.593Z,2.10
2023-04-17T18:37:25.950Z,2.53
2023-04-17T18:40:28.274Z,2.25
2023-04-17T18:43:30.804Z,2.28
2023-04-17T18:46:33.179Z,2.30
2023-04-17T18:49:35.595Z,2.40
2023-04-17T18:52:40.308Z,3.75
2023-04-17T18:55:42.520Z,3.67
2023-04-17T18:58:44.819Z,3.30
2023-04-17T19:01:47.645Z,3.97
2023-04-17T19:04:50.078Z,3.50
2023-04-17T19:07:53.209Z,3.65
2023-04-17T19:10:55.504Z,3.08
2023-04-17T19:13:57.766Z,2.90
2023-04-17T19:17:00.126Z,3.45
2023-04-17T19:20:02.885Z,3.17
2023-04-17T19:23:05.093Z,3.25
2023-04-17T19:26:07.521Z,3.63
2023-04-17T19:29:09.763Z,3.72
2023-04-17T19:32:12.925Z,3.33
2023-04-17T19:35:15.293Z,3.25
2023-04-17T19:38:17.767Z,3.65
2023-04-17T19:41:22.521Z,3.63
2023-04-17T19:44:27.775Z,3.15
2023-04-17T19:47:30.364Z,3.63
2023-04-17T19:50:33.024Z,3.60
2023-04-17T19:53:36.883Z,3.90
2023-04-17T19:56:39.701Z,3.38
2023-04-17T19:59:41.948Z,3.53
2023-04-17T20:02:44.673Z,3.88
2023-04-17T20:05:48.118Z,3.50
2023-04-17T20:08:50.618Z,3.33
2023-04-17T20:11:53.211Z,3.75
2023-04-17T20:14:55.496Z,3.88
2023-04-17T20:17:58.424Z,4.65
2023-04-17T20:21:04.682Z,4.80
2023-04-17T20:24:07.055Z,4.05
2023-04-17T20:27:09.333Z,4.47
2023-04-17T20:30:12.081Z,3.80
2023-04-17T20:33:14.631Z,3.90
2023-04-17T20:36:17.305Z,4.50
2023-04-17T20:39:19.667Z,4.38
2023-04-17T20:42:22.095Z,4.25
2023-04-17T20:45:24.342Z,5.10
2023-04-17T20:48:26.724Z,4.75
2023-04-17T20:51:29.012Z,5.40
2023-04-17T20:54:31.286Z,4.70
2023-04-17T20:57:34.003Z,4.85
2023-04-17T21:00:39.990Z,4.50
2023-04-17T21:03:47.266Z,4.35
2023-04-17T21:06:49.661Z,5.47
2023-04-17T21:09:52.041Z,4.90
2023-04-17T21:12:54.409Z,4.93
2023-04-17T21:15:56.720Z,4.22
2023-04-17T21:18:59.088Z,4.60
2023-04-17T21:22:01.245Z,4.80
2023-04-17T21:25:03.555Z,4.63
2023-04-17T21:28:05.837Z,5.10
2023-04-17T21:31:10.462Z,4.93
2023-04-17T21:34:12.879Z,4.90
2023-04-17T21:37:15.485Z,4.97
2023-04-17T21:40:17.820Z,4.88
2023-04-17T21:43:20.265Z,4.82
2023-04-17T21:46:22.575Z,4.45
2023-04-17T21:49:25.062Z,4.72
2023-04-17T21:52:27.270Z,4.80
2023-04-17T21:55:29.474Z,5.00
2023-04-17T21:58:31.838Z,4.35
2023-04-17T22:01:34.233Z,4.15
2023-04-17T22:04:36.721Z,4.30
2023-04-17T22:07:53.744Z,4.55
2023-04-17T22:10:57.534Z,4.90
2023-04-17T22:13:59.863Z,4.03
2023-04-17T22:17:02.170Z,4.75
2023-04-17T22:20:04.970Z,5.22
2023-04-17T22:23:07.603Z,5.38
2023-04-17T22:26:09.848Z,5.72
2023-04-17T22:29:12.128Z,4.10
2023-04-17T22:32:14.343Z,4.78
2023-04-17T22:35:16.716Z,5.32
2023-04-17T22:38:21.019Z,5.78
2023-04-17T22:41:23.286Z,5.43
2023-04-17T22:44:25.710Z,5.18
2023-04-17T22:47:28.006Z,5.75
2023-04-17T22:50:30.804Z,5.35
2023-04-17T22:53:33.697Z,5.22
2023-04-17T22:56:35.887Z,6.40
2023-04-17T22:59:38.099Z,6.05
2023-04-17T23:02:40.518Z,5.45
2023-04-17T23:05:43.070Z,6.45
2023-04-17T23:08:45.462Z,6.35
2023-04-17T23:11:47.857Z,5.97
2023-04-17T23:14:50.159Z,5.72
2023-04-17T23:17:52.444Z,5.25
2023-04-17T23:20:54.844Z,6.70
2023-04-17T23:23:57.078Z,6.53
2023-04-17T23:26:59.371Z,6.57
2023-04-17T23:30:01.726Z,6.13
2023-04-17T23:33:04.664Z,7.15
2023-04-17T23:36:07.244Z,6.55
2023-04-17T23:39:09.500Z,6.22
2023-04-17T23:42:11.750Z,6.22
2023-04-17T23:45:14.414Z,6.30
2023-04-17T23:48:16.835Z,6.53
2023-04-17T23:51:19.607Z,6.55
2023-04-17T23:54:22.058Z,5.90
2023-04-17T23:57:25.064Z,7.03
